Terminal Aerodrome Forecast
Issued by NWS Boston, MA

Home | Current Version | Previous Version | Text Only | Print | Product List | Glossary On
Versions: 1 2 3 4 5 6 7 8 9 10 11 12 13 14 15 16 17 18 19 20 21 22 23 24 25 26 27 28 29 30 31 32 33 34 35
000
FTUS41 KBOX 071125
TAFORH
TAF
KORH 071125Z 0712/0812 00000KT 4SM BR OVC004
     FM071300 18005KT P6SM OVC015
     FM071600 18009KT P6SM OVC025
     FM071900 20010G18KT P6SM BKN035
     FM080400 23008KT 5SM BR BKN150=

USA.gov is the U.S. government's official web portal to all federal, state and local government web resources and services.